Violeta B — 5BEH4 — position and weather

sailwx.info

Track history (hours):
 
Tides and Currents Weather Stations Pressure Air Temp Water Temp Dewpoint Dewpoint Depression Visibility Wind Speed Wind Dir Waves Ship Positions

Violeta B

Last reported at 2018-Aug-14 20:26 UTC. Time now 2018-Aug-14 23:43 UTC.
Position N 38°34' E 000°16'.

Length 170 m; draft 7.3 m.

Type: Ship (hazmat cat A). MMSI: 212417000.

Date/timePositionNaut miles runAvg speedWind from/ knotsBaromVisibWave heightAir tempDewpointWater temp
2018-Aug-14 20:26N 38°34' E 000°16'8 8.1
2018-Aug-14 19:25N 38°31' E 000°06'4 8.1
2018-Aug-14 18:52N 38°29' E 000°01'3 8.1
2018-Aug-14 18:30N 38°28' W 000°03'4 8.0
2018-Aug-14 18:00N 38°26' W 000°07'11 7.7
2018-Aug-14 16:32N 38°21' W 000°20'0 7.6
2018-Aug-14 16:30N 38°21' W 000°21'18 2.4
2018-Aug-14 08:49N 38°03' W 000°24'516.9
2018-Aug-14 08:30N 37°58' W 000°25'816.5
2018-Aug-14 08:00N 37°50' W 000°27'816.3
2018-Aug-14 07:30N 37°41' W 000°28'815.8
2018-Aug-14 07:00N 37°34' W 000°31'816.0
2018-Aug-14 06:29N 37°28' W 000°38'817.3
2018-Aug-14 06:00N 37°22' W 000°46'918.0
2018-Aug-14 05:30N 37°16' W 000°54'918.0
2018-Aug-14 05:00N 37°10' W 001°03'1617.9
2018-Aug-14 04:05N 36°59' W 001°18'318.0
2018-Aug-14 03:55N 36°57' W 001°20'19118.4
2018-Aug-13 17:33N 36°01' W 005°08'120.7
2018-Aug-13 17:30N 36°01' W 005°09'1021.0
2018-Aug-13 17:00N 35°59' W 005°22'9818.3
2018-Aug-13 11:41N 35°11' W 007°06'317.7
2018-Aug-13 11:30N 35°09' W 007°10'917.6
2018-Aug-13 11:00N 35°05' W 007°19'917.5
2018-Aug-13 10:30N 34°60' W 007°28'917.4
2018-Aug-13 10:00N 34°55' W 007°37'917.6
2018-Aug-13 09:30N 34°50' W 007°45'917.5
2018-Aug-13 09:00N 34°45' W 007°54'917.9
2018-Aug-13 08:30N 34°39' W 008°03'2618.2
2018-Aug-13 07:06N 34°24' W 008°28'1317.9
2018-Aug-13 06:21N 34°17' W 008°41'617.7
2018-Aug-13 06:00N 34°13' W 008°47'1017.8
2018-Aug-13 05:28N 34°07' W 008°56'817.6
2018-Aug-13 05:00N 34°03' W 009°04'1117.6
2018-Aug-13 04:23N 33°56' W 009°15'917.6
2018-Aug-13 03:52N 33°51' W 009°24'717.4
2018-Aug-13 03:27N 33°47' W 009°31'1317.2
2018-Aug-13 02:40N 33°39' W 009°44'317.0
2018-Aug-13 02:30N 33°37' W 009°47'2317.0
2018-Aug-13 01:09N 33°23' W 010°09'516.8
2018-Aug-13 00:52N 33°21' W 010°14'616.9
2018-Aug-13 00:30N 33°17' W 010°20'916.9
2018-Aug-12 23:59N 33°12' W 010°28'816.8
2018-Aug-12 23:30N 33°07' W 010°36'816.7
2018-Aug-12 23:00N 33°02' W 010°44'816.7
2018-Aug-12 22:30N 32°57' W 010°52'816.6
2018-Aug-12 22:00N 32°53' W 010°60'816.4
2018-Aug-12 21:29N 32°48' W 011°08'816.4
2018-Aug-12 21:00N 32°43' W 011°16'816.4
2018-Aug-12 20:30N 32°38' W 011°23'816.5
2018-Aug-12 20:00N 32°33' W 011°31'816.4
2018-Aug-12 19:30N 32°28' W 011°39'816.5
2018-Aug-12 19:00N 32°24' W 011°47'816.7
2018-Aug-12 18:30N 32°19' W 011°55'916.5
2018-Aug-12 18:00N 32°14' W 012°04'816.4
2018-Aug-12 17:30N 32°09' W 012°11'916.5
2018-Aug-12 16:56N 32°04' W 012°20'716.7
2018-Aug-12 16:30N 31°59' W 012°27'1016.7
2018-Aug-12 15:53N 31°53' W 012°37'616.6
2018-Aug-12 15:30N 31°50' W 012°43'916.5
2018-Aug-12 14:59N 31°45' W 012°51'816.5
2018-Aug-12 14:30N 31°40' W 012°59'1016.1
2018-Aug-12 13:54N 31°34' W 013°08'716.3
2018-Aug-12 13:28N 31°30' W 013°14'816.2
2018-Aug-12 13:00N 31°26' W 013°22'1916.0
2018-Aug-12 11:51N 31°15' W 013°39'916.4
2018-Aug-12 11:19N 31°10' W 013°48'816.3
2018-Aug-12 10:50N 31°05' W 013°55'516.3
2018-Aug-12 10:31N 31°02' W 013°60'1716.2
2018-Aug-12 09:27N 30°52' W 014°16'716.0
2018-Aug-12 09:00N 30°47' W 014°23'3815.6
2018-Aug-12 06:34N 30°26' W 014°59'115.6
2018-Aug-12 06:30N 30°25' W 014°60'815.6
2018-Aug-12 05:59N 30°20' W 015°07'815.7
2018-Aug-12 05:28N 30°15' W 015°15'2215.5
2018-Aug-12 04:03N 30°03' W 015°35'115.7
2018-Aug-12 04:00N 30°02' W 015°36'815.6
2018-Aug-12 03:30N 29°58' W 015°43'815.6
2018-Aug-12 03:00N 29°53' W 015°51'815.9
2018-Aug-12 02:30N 29°48' W 015°58'816.2
2018-Aug-12 02:00N 29°43' W 016°05'66 2.3
2018-Aug-10 21:26N 28°38' W 016°07'3 7.3
2018-Aug-10 21:00N 28°35' W 016°05'3 6.2
2018-Aug-10 20:30N 28°32' W 016°04'3 5.8
2018-Aug-10 20:01N 28°30' W 016°05'3 6.5
2018-Aug-10 19:31N 28°29' W 016°09'4 7.2
2018-Aug-10 19:00N 28°28' W 016°13'1 2.9
2018-Aug-10 18:30N 28°29' W 016°14'0 0.0
2018-Aug-10 17:54N 28°29' W 016°14'0 0.0
2018-Aug-10 17:30N 28°29' W 016°14'0 0.0
2018-Aug-10 17:00N 28°29' W 016°14'0 0.0
2018-Aug-10 16:30N 28°29' W 016°14'0 0.0
2018-Aug-10 16:00N 28°29' W 016°14'0 0.0
2018-Aug-10 15:30N 28°29' W 016°14'0 0.0
2018-Aug-10 15:00N 28°29' W 016°14'0 0.0
2018-Aug-10 14:30N 28°29' W 016°14'0 0.0
2018-Aug-10 14:00N 28°29' W 016°14'0 0.0
2018-Aug-10 13:30N 28°29' W 016°14'0 0.0
2018-Aug-10 13:00N 28°29' W 016°14'0 0.0
2018-Aug-10 12:30N 28°29' W 016°14'0 0.0
2018-Aug-10 11:59N 28°29' W 016°14'0 0.0
2018-Aug-10 11:30N 28°29' W 016°14'0 0.0
2018-Aug-10 11:00N 28°29' W 016°14'0 0.0
2018-Aug-10 10:29N 28°29' W 016°14'0 0.0
2018-Aug-10 10:00N 28°29' W 016°14'0 0.0
2018-Aug-10 09:30N 28°29' W 016°14'0 0.0
2018-Aug-10 09:00N 28°29' W 016°14'0 0.0
2018-Aug-10 08:30N 28°29' W 016°14'0 0.0
2018-Aug-10 08:00N 28°29' W 016°14'0 0.0
2018-Aug-10 07:30N 28°29' W 016°14'0 0.0
2018-Aug-10 07:00N 28°29' W 016°14'0 0.0
2018-Aug-10 06:30N 28°29' W 016°14'0 0.0
2018-Aug-10 06:00N 28°29' W 016°14'0 0.0
2018-Aug-10 05:30N 28°29' W 016°14'0 0.1
2018-Aug-10 05:00N 28°29' W 016°14'2 4.3
2018-Aug-10 04:30N 28°28' W 016°12'612.5
2018-Aug-10 04:00N 28°25' W 016°05'612.8
2018-Aug-10 03:30N 28°23' W 015°59'713.4
2018-Aug-10 03:00N 28°20' W 015°52'713.4
2018-Aug-10 02:30N 28°18' W 015°44'713.4
2018-Aug-10 02:00N 28°16' W 015°37'713.5
2018-Aug-10 01:30N 28°14' W 015°30'713.3
2018-Aug-10 01:00N 28°12' W 015°23'4 8.5
2018-Aug-10 00:30N 28°08' W 015°25'1 2.0
2018-Aug-10 00:00N 28°09' W 015°25'0 0.0
2018-Aug-09 23:18N 28°09' W 015°25'0 0.0
2018-Aug-09 22:51N 28°09' W 015°25'0 0.0
2018-Aug-09 22:21N 28°09' W 015°25'0 0.0
2018-Aug-09 21:54N 28°09' W 015°25'0 0.0
2018-Aug-09 21:21N 28°09' W 015°25'0 0.0
2018-Aug-09 20:54N 28°09' W 015°25'0 0.0
2018-Aug-09 20:24N 28°09' W 015°25'0 0.0
2018-Aug-09 19:54N 28°09' W 015°25'0 0.0
2018-Aug-09 19:24N 28°09' W 015°25'0 0.0
2018-Aug-09 18:57N 28°09' W 015°25'0 0.0
2018-Aug-09 18:27N 28°09' W 015°25'0 0.0
2018-Aug-09 17:57N 28°09' W 015°25'0 0.0
2018-Aug-09 17:27N 28°09' W 015°25'0 0.0
2018-Aug-09 16:57N 28°09' W 015°25'0 0.0
2018-Aug-09 16:27N 28°09' W 015°25'0 0.0
2018-Aug-09 15:57N 28°09' W 015°25'0 0.0
2018-Aug-09 15:27N 28°09' W 015°25'0 0.0
2018-Aug-09 15:00N 28°09' W 015°25'0 0.0
2018-Aug-09 14:30N 28°09' W 015°25'0 0.0
2018-Aug-09 14:00N 28°09' W 015°25'0 0.0
2018-Aug-09 13:30N 28°09' W 015°25'0 0.0
2018-Aug-09 13:00N 28°09' W 015°25'0 0.0
2018-Aug-09 12:30N 28°09' W 015°25'0 0.0
2018-Aug-09 12:00N 28°09' W 015°25'0 0.0
2018-Aug-09 11:30N 28°09' W 015°25'0 0.0
2018-Aug-09 10:33N 28°09' W 015°25'0 0.1
2018-Aug-09 10:30N 28°09' W 015°25'0 0.0
2018-Aug-09 10:00N 28°09' W 015°25'0 0.0
2018-Aug-09 09:30N 28°09' W 015°25'0 0.0
2018-Aug-09 08:48N 28°09' W 015°25'0 0.0
2018-Aug-09 08:30N 28°09' W 015°25'0 0.0
2018-Aug-09 07:51N 28°09' W 015°25'0 0.0
2018-Aug-09 07:24N 28°09' W 015°25'0 0.0
2018-Aug-09 06:54N 28°09' W 015°25'0 0.0
2018-Aug-09 06:24N 28°09' W 015°25'0 0.0
2018-Aug-09 05:54N 28°09' W 015°25'0 0.0
2018-Aug-09 05:24N 28°09' W 015°25'0 0.0
2018-Aug-09 04:54N 28°09' W 015°25'0 0.0
2018-Aug-09 04:24N 28°09' W 015°25'0 0.0
2018-Aug-09 03:57N 28°09' W 015°25'0 0.0
2018-Aug-09 03:27N 28°09' W 015°25'0 0.0
2018-Aug-09 02:54N 28°09' W 015°25'0 0.0
2018-Aug-09 02:24N 28°09' W 015°25'0 0.0
2018-Aug-09 01:57N 28°09' W 015°25'0 0.0
2018-Aug-09 01:30N 28°09' W 015°25'0 0.0
2018-Aug-09 00:57N 28°09' W 015°25'0 0.0
2018-Aug-09 00:30N 28°09' W 015°25'0 0.0
2018-Aug-09 00:00N 28°09' W 015°25'0 0.0
2018-Aug-08 23:30N 28°09' W 015°25'0 0.0
2018-Aug-08 23:00N 28°09' W 015°25'0 0.0
2018-Aug-08 22:30N 28°09' W 015°25'0 0.0
2018-Aug-08 22:00N 28°09' W 015°25'0 0.0
2018-Aug-08 21:30N 28°09' W 015°25'0 0.1
2018-Aug-08 21:00N 28°09' W 015°25'0 0.0
2018-Aug-08 20:30N 28°09' W 015°25'0 0.0
2018-Aug-08 20:00N 28°09' W 015°25'0 0.0
2018-Aug-08 19:30N 28°09' W 015°25'0 0.0
2018-Aug-08 19:00N 28°09' W 015°25'0 0.0
2018-Aug-08 18:21N 28°09' W 015°25'0 0.0
2018-Aug-08 17:51N 28°09' W 015°25'0 1.0
2018-Aug-08 17:29N 28°08' W 015°25'2 3.8
2018-Aug-08 17:00N 28°08' W 015°23'510.5
2018-Aug-08 16:30N 28°13' W 015°25'613.1
2018-Aug-08 16:00N 28°14' W 015°32'613.0
2018-Aug-08 15:30N 28°16' W 015°40'612.8
2018-Aug-08 15:00N 28°18' W 015°46'612.4
2018-Aug-08 14:30N 28°20' W 015°53'612.7
2018-Aug-08 14:00N 28°23' W 015°59'713.4
2018-Aug-08 13:30N 28°26' W 016°06'713.1
2018-Aug-08 13:00N 28°29' W 016°13'1 1.5
2018-Aug-08 12:30N 28°29' W 016°14'0 0.0
2018-Aug-08 11:59N 28°29' W 016°14'0 0.0
2018-Aug-08 11:29N 28°29' W 016°14'0 0.0
2018-Aug-08 10:59N 28°29' W 016°14'0 0.0
2018-Aug-08 10:29N 28°29' W 016°14'0 0.0
2018-Aug-08 09:59N 28°29' W 016°14'0 0.0
2018-Aug-08 09:29N 28°29' W 016°14'0 0.0
2018-Aug-08 08:59N 28°29' W 016°14'0 0.0
2018-Aug-08 08:29N 28°29' W 016°14'0 0.0
2018-Aug-08 07:59N 28°29' W 016°14'0 0.0
2018-Aug-08 07:29N 28°29' W 016°14'0 0.0
2018-Aug-08 06:59N 28°29' W 016°14'0 0.0
2018-Aug-08 06:29N 28°29' W 016°14'0 0.0
2018-Aug-08 05:59N 28°29' W 016°14'0 0.2
2018-Aug-08 05:30N 28°29' W 016°14'2 3.1
2018-Aug-08 05:01N 28°29' W 016°12'5 9.2
2018-Aug-08 04:30N 28°30' W 016°07'816.2
2018-Aug-08 04:00N 28°34' W 015°59'816.7
2018-Aug-08 03:30N 28°37' W 015°50'816.6
2018-Aug-08 03:00N 28°42' W 015°43'816.6
2018-Aug-08 02:30N 28°48' W 015°35'816.5
2018-Aug-08 02:00N 28°53' W 015°28'816.4
2018-Aug-08 01:30N 28°58' W 015°21'816.4
2018-Aug-08 01:00N 29°04' W 015°14'816.5
2018-Aug-08 00:30N 29°09' W 015°07'816.5
2018-Aug-08 00:00N 29°15' W 014°60'816.7
2018-Aug-07 23:30N 29°20' W 014°53'916.4
2018-Aug-07 22:58N 29°26' W 014°45'816.6
2018-Aug-07 22:30N 29°31' W 014°39'816.4
2018-Aug-07 22:00N 29°36' W 014°31'816.6
2018-Aug-07 21:30N 29°42' W 014°24'816.7
2018-Aug-07 21:00N 29°47' W 014°17'816.7
2018-Aug-07 20:30N 29°53' W 014°10'816.5
2018-Aug-07 20:00N 29°58' W 014°02'816.5
2018-Aug-07 19:30N 30°04' W 013°55'916.6
2018-Aug-07 18:58N 30°09' W 013°47'816.4
2018-Aug-07 18:31N 30°14' W 013°41'816.6
2018-Aug-07 18:00N 30°20' W 013°33'816.7
2018-Aug-07 17:31N 30°25' W 013°26'816.4
2018-Aug-07 17:01N 30°31' W 013°19'816.5
2018-Aug-07 16:30N 30°36' W 013°12'816.5
2018-Aug-07 16:00N 30°41' W 013°04'916.6
2018-Aug-07 15:27N 30°48' W 012°56'816.8
2018-Aug-07 15:00N 30°53' W 012°50'816.6
2018-Aug-07 14:31N 30°58' W 012°43'816.6
2018-Aug-07 14:00N 31°03' W 012°35'916.4
2018-Aug-07 13:29N 31°09' W 012°28'916.6
2018-Aug-07 12:57N 31°15' W 012°20'716.4
2018-Aug-07 12:30N 31°20' W 012°13'816.4
2018-Aug-07 12:00N 31°25' W 012°06'816.2
2018-Aug-07 11:30N 31°30' W 011°59'1016.7
2018-Aug-07 10:54N 31°37' W 011°50'716.6
2018-Aug-07 10:28N 31°42' W 011°44'2216.5
2018-Aug-07 09:09N 31°56' W 011°24'816.6
2018-Aug-07 08:41N 32°01' W 011°18'616.7
2018-Aug-07 08:20N 32°05' W 011°12'716.9
2018-Aug-07 07:55N 32°09' W 011°06'716.9
2018-Aug-07 07:30N 32°14' W 010°60'916.8
2018-Aug-07 07:00N 32°19' W 010°52'816.9
2018-Aug-07 06:30N 32°25' W 010°45'917.0
2018-Aug-07 06:00N 32°30' W 010°37'817.0
2018-Aug-07 05:30N 32°36' W 010°29'1116.8
2018-Aug-07 04:53N 32°43' W 010°20'717.0
2018-Aug-07 04:28N 32°48' W 010°14'817.1
2018-Aug-07 04:00N 32°53' W 010°07'917.0
2018-Aug-07 03:29N 32°59' W 009°59'817.2
2018-Aug-07 03:00N 33°04' W 009°51'917.2
2018-Aug-07 02:30N 33°10' W 009°43'917.4
2018-Aug-07 01:59N 33°16' W 009°35'817.4
2018-Aug-07 01:30N 33°21' W 009°28'917.5
2018-Aug-07 01:00N 33°27' W 009°20'1017.5
2018-Aug-07 00:27N 33°33' W 009°11'817.6
2018-Aug-07 00:00N 33°39' W 009°04'917.6
2018-Aug-06 23:31N 33°44' W 008°56'917.4
2018-Aug-06 23:00N 33°50' W 008°48'917.4
2018-Aug-06 22:30N 33°56' W 008°40'917.3
2018-Aug-06 21:58N 34°02' W 008°32'817.3
2018-Aug-06 21:29N 34°07' W 008°24'1217.3
2018-Aug-06 20:49N 34°15' W 008°13'1117.3
2018-Aug-06 20:12N 34°22' W 008°04'417.4
2018-Aug-06 19:57N 34°25' W 007°60'817.3
2018-Aug-06 19:30N 34°30' W 007°53'917.4
2018-Aug-06 18:58N 34°36' W 007°44'3317.3
2018-Aug-06 17:02N 34°58' W 007°13'10116.6
2018-Aug-06 10:56N 35°58' W 005°34'715.8
2018-Aug-06 10:31N 35°60' W 005°26'815.3
2018-Aug-06 10:00N 36°02' W 005°17'21515.5
2018-Aug-05 20:09N 37°14' W 001°04'316.8
2018-Aug-05 19:57N 37°16' W 001°00'716.8
2018-Aug-05 19:30N 37°21' W 000°53'816.8
2018-Aug-05 19:00N 37°26' W 000°45'816.7
2018-Aug-05 18:30N 37°32' W 000°37'816.6
2018-Aug-05 18:00N 37°38' W 000°31'917.0
2018-Aug-05 17:29N 37°45' W 000°25'817.0
2018-Aug-05 17:00N 37°52' W 000°19'816.8
2018-Aug-05 16:30N 37°59' W 000°13'816.8
2018-Aug-05 16:00N 38°06' W 000°07'916.9
2018-Aug-05 15:30N 38°13' W 000°01'816.8
2018-Aug-05 15:00N 38°20' E 000°04'1716.7
2018-Aug-05 14:00N 38°34' E 000°16'916.6
2018-Aug-05 13:29N 38°42' E 000°22'4916.5
2018-Aug-05 10:30N 39°22' W 000°14'511.1
2018-Aug-05 10:01N 39°26' W 000°19'0 0.6
2018-Aug-05 09:30N 39°26' W 000°19'0 0.0
2018-Aug-05 09:00N 39°26' W 000°19'0 0.0
2018-Aug-05 08:27N 39°26' W 000°19'0 0.0
2018-Aug-05 08:00N 39°26' W 000°19'0 0.0
2018-Aug-05 07:30N 39°26' W 000°19'0 0.0
2018-Aug-05 07:00N 39°26' W 000°19'0 0.0
2018-Aug-05 06:30N 39°26' W 000°19'0 0.0
2018-Aug-05 06:00N 39°26' W 000°19'0 0.0
2018-Aug-05 05:30N 39°26' W 000°19'0 0.0
2018-Aug-05 04:57N 39°26' W 000°19'0 0.0
2018-Aug-05 04:30N 39°26' W 000°19'0 0.0
2018-Aug-05 04:00N 39°26' W 000°19'0 0.0
2018-Aug-05 03:30N 39°26' W 000°19'0 0.0
2018-Aug-05 03:00N 39°26' W 000°19'0 0.0
2018-Aug-05 02:30N 39°26' W 000°19'0 0.0
2018-Aug-05 02:00N 39°26' W 000°19'0 0.0
2018-Aug-05 01:30N 39°26' W 000°19'0 0.0
2018-Aug-05 01:00N 39°26' W 000°19'0 0.0
2018-Aug-05 00:30N 39°26' W 000°19'0 0.0
2018-Aug-05 00:00N 39°26' W 000°19'0 0.0
2018-Aug-04 23:30N 39°26' W 000°19'0 0.0
2018-Aug-04 23:00N 39°26' W 000°19'0 0.0
2018-Aug-04 22:30N 39°26' W 000°19'0 0.0
2018-Aug-04 22:00N 39°26' W 000°19'0 0.0
2018-Aug-04 21:30N 39°26' W 000°19'0 0.0
2018-Aug-04 21:00N 39°26' W 000°19'0 0.0
2018-Aug-04 20:30N 39°26' W 000°19'  
Track history (hours):
 
Tides and Currents Weather Stations Pressure Air Temp Water Temp Dewpoint Dewpoint Depression Visibility Wind Speed Wind Dir Waves Ship Positions

Violeta B

Last reported at 2018-Aug-14 20:26 UTC. Time now 2018-Aug-14 23:43 UTC.
Position N 38°34' E 000°16'.

Length 170 m; draft 7.3 m.

Type: Ship (hazmat cat A). MMSI: 212417000.

Date/timePositionNaut miles runAvg speedWind from/ knotsBaromVisibWave heightAir tempDewpointWater temp
2018-Aug-14 20:26N 38°34' E 000°16'8 8.1
2018-Aug-14 19:25N 38°31' E 000°06'4 8.1
2018-Aug-14 18:52N 38°29' E 000°01'3 8.1
2018-Aug-14 18:30N 38°28' W 000°03'4 8.0
2018-Aug-14 18:00N 38°26' W 000°07'11 7.7
2018-Aug-14 16:32N 38°21' W 000°20'0 7.6
2018-Aug-14 16:30N 38°21' W 000°21'18 2.4
2018-Aug-14 08:49N 38°03' W 000°24'516.9
2018-Aug-14 08:30N 37°58' W 000°25'816.5
2018-Aug-14 08:00N 37°50' W 000°27'816.3
2018-Aug-14 07:30N 37°41' W 000°28'815.8
2018-Aug-14 07:00N 37°34' W 000°31'816.0
2018-Aug-14 06:29N 37°28' W 000°38'817.3
2018-Aug-14 06:00N 37°22' W 000°46'918.0
2018-Aug-14 05:30N 37°16' W 000°54'918.0
2018-Aug-14 05:00N 37°10' W 001°03'1617.9
2018-Aug-14 04:05N 36°59' W 001°18'318.0
2018-Aug-14 03:55N 36°57' W 001°20'19118.4
2018-Aug-13 17:33N 36°01' W 005°08'120.7
2018-Aug-13 17:30N 36°01' W 005°09'1021.0
2018-Aug-13 17:00N 35°59' W 005°22'9818.3
2018-Aug-13 11:41N 35°11' W 007°06'317.7
2018-Aug-13 11:30N 35°09' W 007°10'917.6
2018-Aug-13 11:00N 35°05' W 007°19'917.5
2018-Aug-13 10:30N 34°60' W 007°28'917.4
2018-Aug-13 10:00N 34°55' W 007°37'917.6
2018-Aug-13 09:30N 34°50' W 007°45'917.5
2018-Aug-13 09:00N 34°45' W 007°54'917.9
2018-Aug-13 08:30N 34°39' W 008°03'2618.2
2018-Aug-13 07:06N 34°24' W 008°28'1317.9
2018-Aug-13 06:21N 34°17' W 008°41'617.7
2018-Aug-13 06:00N 34°13' W 008°47'1017.8
2018-Aug-13 05:28N 34°07' W 008°56'817.6
2018-Aug-13 05:00N 34°03' W 009°04'1117.6
2018-Aug-13 04:23N 33°56' W 009°15'917.6
2018-Aug-13 03:52N 33°51' W 009°24'717.4
2018-Aug-13 03:27N 33°47' W 009°31'1317.2
2018-Aug-13 02:40N 33°39' W 009°44'317.0
2018-Aug-13 02:30N 33°37' W 009°47'2317.0
2018-Aug-13 01:09N 33°23' W 010°09'516.8
2018-Aug-13 00:52N 33°21' W 010°14'616.9
2018-Aug-13 00:30N 33°17' W 010°20'916.9
2018-Aug-12 23:59N 33°12' W 010°28'816.8
2018-Aug-12 23:30N 33°07' W 010°36'816.7
2018-Aug-12 23:00N 33°02' W 010°44'816.7
2018-Aug-12 22:30N 32°57' W 010°52'816.6
2018-Aug-12 22:00N 32°53' W 010°60'816.4
2018-Aug-12 21:29N 32°48' W 011°08'816.4
2018-Aug-12 21:00N 32°43' W 011°16'816.4
2018-Aug-12 20:30N 32°38' W 011°23'816.5
2018-Aug-12 20:00N 32°33' W 011°31'816.4
2018-Aug-12 19:30N 32°28' W 011°39'816.5
2018-Aug-12 19:00N 32°24' W 011°47'816.7
2018-Aug-12 18:30N 32°19' W 011°55'916.5
2018-Aug-12 18:00N 32°14' W 012°04'816.4
2018-Aug-12 17:30N 32°09' W 012°11'916.5
2018-Aug-12 16:56N 32°04' W 012°20'716.7
2018-Aug-12 16:30N 31°59' W 012°27'1016.7
2018-Aug-12 15:53N 31°53' W 012°37'616.6
2018-Aug-12 15:30N 31°50' W 012°43'916.5
2018-Aug-12 14:59N 31°45' W 012°51'816.5
2018-Aug-12 14:30N 31°40' W 012°59'1016.1
2018-Aug-12 13:54N 31°34' W 013°08'716.3
2018-Aug-12 13:28N 31°30' W 013°14'816.2
2018-Aug-12 13:00N 31°26' W 013°22'1916.0
2018-Aug-12 11:51N 31°15' W 013°39'916.4
2018-Aug-12 11:19N 31°10' W 013°48'816.3
2018-Aug-12 10:50N 31°05' W 013°55'516.3
2018-Aug-12 10:31N 31°02' W 013°60'1716.2
2018-Aug-12 09:27N 30°52' W 014°16'716.0
2018-Aug-12 09:00N 30°47' W 014°23'3815.6
2018-Aug-12 06:34N 30°26' W 014°59'115.6
2018-Aug-12 06:30N 30°25' W 014°60'815.6
2018-Aug-12 05:59N 30°20' W 015°07'815.7
2018-Aug-12 05:28N 30°15' W 015°15'2215.5
2018-Aug-12 04:03N 30°03' W 015°35'115.7
2018-Aug-12 04:00N 30°02' W 015°36'815.6
2018-Aug-12 03:30N 29°58' W 015°43'815.6
2018-Aug-12 03:00N 29°53' W 015°51'815.9
2018-Aug-12 02:30N 29°48' W 015°58'816.2
2018-Aug-12 02:00N 29°43' W 016°05'66 2.3
2018-Aug-10 21:26N 28°38' W 016°07'3 7.3
2018-Aug-10 21:00N 28°35' W 016°05'3 6.2
2018-Aug-10 20:30N 28°32' W 016°04'3 5.8
2018-Aug-10 20:01N 28°30' W 016°05'3 6.5
2018-Aug-10 19:31N 28°29' W 016°09'4 7.2
2018-Aug-10 19:00N 28°28' W 016°13'1 2.9
2018-Aug-10 18:30N 28°29' W 016°14'0 0.0
2018-Aug-10 17:54N 28°29' W 016°14'0 0.0
2018-Aug-10 17:30N 28°29' W 016°14'0 0.0
2018-Aug-10 17:00N 28°29' W 016°14'0 0.0
2018-Aug-10 16:30N 28°29' W 016°14'0 0.0
2018-Aug-10 16:00N 28°29' W 016°14'0 0.0
2018-Aug-10 15:30N 28°29' W 016°14'0 0.0
2018-Aug-10 15:00N 28°29' W 016°14'0 0.0
2018-Aug-10 14:30N 28°29' W 016°14'0 0.0
2018-Aug-10 14:00N 28°29' W 016°14'0 0.0
2018-Aug-10 13:30N 28°29' W 016°14'0 0.0
2018-Aug-10 13:00N 28°29' W 016°14'0 0.0
2018-Aug-10 12:30N 28°29' W 016°14'0 0.0
2018-Aug-10 11:59N 28°29' W 016°14'0 0.0
2018-Aug-10 11:30N 28°29' W 016°14'0 0.0
2018-Aug-10 11:00N 28°29' W 016°14'0 0.0
2018-Aug-10 10:29N 28°29' W 016°14'0 0.0
2018-Aug-10 10:00N 28°29' W 016°14'0 0.0
2018-Aug-10 09:30N 28°29' W 016°14'0 0.0
2018-Aug-10 09:00N 28°29' W 016°14'0 0.0
2018-Aug-10 08:30N 28°29' W 016°14'0 0.0
2018-Aug-10 08:00N 28°29' W 016°14'0 0.0
2018-Aug-10 07:30N 28°29' W 016°14'0 0.0
2018-Aug-10 07:00N 28°29' W 016°14'0 0.0
2018-Aug-10 06:30N 28°29' W 016°14'0 0.0
2018-Aug-10 06:00N 28°29' W 016°14'0 0.0
2018-Aug-10 05:30N 28°29' W 016°14'0 0.1
2018-Aug-10 05:00N 28°29' W 016°14'2 4.3
2018-Aug-10 04:30N 28°28' W 016°12'612.5
2018-Aug-10 04:00N 28°25' W 016°05'612.8
2018-Aug-10 03:30N 28°23' W 015°59'713.4
2018-Aug-10 03:00N 28°20' W 015°52'713.4
2018-Aug-10 02:30N 28°18' W 015°44'713.4
2018-Aug-10 02:00N 28°16' W 015°37'713.5
2018-Aug-10 01:30N 28°14' W 015°30'713.3
2018-Aug-10 01:00N 28°12' W 015°23'4 8.5
2018-Aug-10 00:30N 28°08' W 015°25'1 2.0
2018-Aug-10 00:00N 28°09' W 015°25'0 0.0
2018-Aug-09 23:18N 28°09' W 015°25'0 0.0
2018-Aug-09 22:51N 28°09' W 015°25'0 0.0
2018-Aug-09 22:21N 28°09' W 015°25'0 0.0
2018-Aug-09 21:54N 28°09' W 015°25'0 0.0
2018-Aug-09 21:21N 28°09' W 015°25'0 0.0
2018-Aug-09 20:54N 28°09' W 015°25'0 0.0
2018-Aug-09 20:24N 28°09' W 015°25'0 0.0
2018-Aug-09 19:54N 28°09' W 015°25'0 0.0
2018-Aug-09 19:24N 28°09' W 015°25'0 0.0
2018-Aug-09 18:57N 28°09' W 015°25'0 0.0
2018-Aug-09 18:27N 28°09' W 015°25'0 0.0
2018-Aug-09 17:57N 28°09' W 015°25'0 0.0
2018-Aug-09 17:27N 28°09' W 015°25'0 0.0
2018-Aug-09 16:57N 28°09' W 015°25'0 0.0
2018-Aug-09 16:27N 28°09' W 015°25'0 0.0
2018-Aug-09 15:57N 28°09' W 015°25'0 0.0
2018-Aug-09 15:27N 28°09' W 015°25'0 0.0
2018-Aug-09 15:00N 28°09' W 015°25'0 0.0
2018-Aug-09 14:30N 28°09' W 015°25'0 0.0
2018-Aug-09 14:00N 28°09' W 015°25'0 0.0
2018-Aug-09 13:30N 28°09' W 015°25'0 0.0
2018-Aug-09 13:00N 28°09' W 015°25'0 0.0
2018-Aug-09 12:30N 28°09' W 015°25'0 0.0
2018-Aug-09 12:00N 28°09' W 015°25'0 0.0
2018-Aug-09 11:30N 28°09' W 015°25'0 0.0
2018-Aug-09 10:33N 28°09' W 015°25'0 0.1
2018-Aug-09 10:30N 28°09' W 015°25'0 0.0
2018-Aug-09 10:00N 28°09' W 015°25'0 0.0
2018-Aug-09 09:30N 28°09' W 015°25'0 0.0
2018-Aug-09 08:48N 28°09' W 015°25'0 0.0
2018-Aug-09 08:30N 28°09' W 015°25'0 0.0
2018-Aug-09 07:51N 28°09' W 015°25'0 0.0
2018-Aug-09 07:24N 28°09' W 015°25'0 0.0
2018-Aug-09 06:54N 28°09' W 015°25'0 0.0
2018-Aug-09 06:24N 28°09' W 015°25'0 0.0
2018-Aug-09 05:54N 28°09' W 015°25'0 0.0
2018-Aug-09 05:24N 28°09' W 015°25'0 0.0
2018-Aug-09 04:54N 28°09' W 015°25'0 0.0
2018-Aug-09 04:24N 28°09' W 015°25'0 0.0
2018-Aug-09 03:57N 28°09' W 015°25'0 0.0
2018-Aug-09 03:27N 28°09' W 015°25'0 0.0
2018-Aug-09 02:54N 28°09' W 015°25'0 0.0
2018-Aug-09 02:24N 28°09' W 015°25'0 0.0
2018-Aug-09 01:57N 28°09' W 015°25'0 0.0
2018-Aug-09 01:30N 28°09' W 015°25'0 0.0
2018-Aug-09 00:57N 28°09' W 015°25'0 0.0
2018-Aug-09 00:30N 28°09' W 015°25'0 0.0
2018-Aug-09 00:00N 28°09' W 015°25'0 0.0
2018-Aug-08 23:30N 28°09' W 015°25'0 0.0
2018-Aug-08 23:00N 28°09' W 015°25'0 0.0
2018-Aug-08 22:30N 28°09' W 015°25'0 0.0
2018-Aug-08 22:00N 28°09' W 015°25'0 0.0
2018-Aug-08 21:30N 28°09' W 015°25'0 0.1
2018-Aug-08 21:00N 28°09' W 015°25'0 0.0
2018-Aug-08 20:30N 28°09' W 015°25'0 0.0
2018-Aug-08 20:00N 28°09' W 015°25'0 0.0
2018-Aug-08 19:30N 28°09' W 015°25'0 0.0
2018-Aug-08 19:00N 28°09' W 015°25'0 0.0
2018-Aug-08 18:21N 28°09' W 015°25'0 0.0
2018-Aug-08 17:51N 28°09' W 015°25'0 1.0
2018-Aug-08 17:29N 28°08' W 015°25'2 3.8
2018-Aug-08 17:00N 28°08' W 015°23'510.5
2018-Aug-08 16:30N 28°13' W 015°25'613.1
2018-Aug-08 16:00N 28°14' W 015°32'613.0
2018-Aug-08 15:30N 28°16' W 015°40'612.8
2018-Aug-08 15:00N 28°18' W 015°46'612.4
2018-Aug-08 14:30N 28°20' W 015°53'612.7
2018-Aug-08 14:00N 28°23' W 015°59'713.4
2018-Aug-08 13:30N 28°26' W 016°06'713.1
2018-Aug-08 13:00N 28°29' W 016°13'1 1.5
2018-Aug-08 12:30N 28°29' W 016°14'0 0.0
2018-Aug-08 11:59N 28°29' W 016°14'0 0.0
2018-Aug-08 11:29N 28°29' W 016°14'0 0.0
2018-Aug-08 10:59N 28°29' W 016°14'0 0.0
2018-Aug-08 10:29N 28°29' W 016°14'0 0.0
2018-Aug-08 09:59N 28°29' W 016°14'0 0.0
2018-Aug-08 09:29N 28°29' W 016°14'0 0.0
2018-Aug-08 08:59N 28°29' W 016°14'0 0.0
2018-Aug-08 08:29N 28°29' W 016°14'0 0.0
2018-Aug-08 07:59N 28°29' W 016°14'0 0.0
2018-Aug-08 07:29N 28°29' W 016°14'0 0.0
2018-Aug-08 06:59N 28°29' W 016°14'0 0.0
2018-Aug-08 06:29N 28°29' W 016°14'0 0.0
2018-Aug-08 05:59N 28°29' W 016°14'0 0.2
2018-Aug-08 05:30N 28°29' W 016°14'2 3.1
2018-Aug-08 05:01N 28°29' W 016°12'5 9.2
2018-Aug-08 04:30N 28°30' W 016°07'816.2
2018-Aug-08 04:00N 28°34' W 015°59'816.7
2018-Aug-08 03:30N 28°37' W 015°50'816.6
2018-Aug-08 03:00N 28°42' W 015°43'816.6
2018-Aug-08 02:30N 28°48' W 015°35'816.5
2018-Aug-08 02:00N 28°53' W 015°28'816.4
2018-Aug-08 01:30N 28°58' W 015°21'816.4
2018-Aug-08 01:00N 29°04' W 015°14'816.5
2018-Aug-08 00:30N 29°09' W 015°07'816.5
2018-Aug-08 00:00N 29°15' W 014°60'816.7
2018-Aug-07 23:30N 29°20' W 014°53'916.4
2018-Aug-07 22:58N 29°26' W 014°45'816.6
2018-Aug-07 22:30N 29°31' W 014°39'816.4
2018-Aug-07 22:00N 29°36' W 014°31'816.6
2018-Aug-07 21:30N 29°42' W 014°24'816.7
2018-Aug-07 21:00N 29°47' W 014°17'816.7
2018-Aug-07 20:30N 29°53' W 014°10'816.5
2018-Aug-07 20:00N 29°58' W 014°02'816.5
2018-Aug-07 19:30N 30°04' W 013°55'916.6
2018-Aug-07 18:58N 30°09' W 013°47'816.4
2018-Aug-07 18:31N 30°14' W 013°41'816.6
2018-Aug-07 18:00N 30°20' W 013°33'816.7
2018-Aug-07 17:31N 30°25' W 013°26'816.4
2018-Aug-07 17:01N 30°31' W 013°19'816.5
2018-Aug-07 16:30N 30°36' W 013°12'816.5
2018-Aug-07 16:00N 30°41' W 013°04'916.6
2018-Aug-07 15:27N 30°48' W 012°56'816.8
2018-Aug-07 15:00N 30°53' W 012°50'816.6
2018-Aug-07 14:31N 30°58' W 012°43'816.6
2018-Aug-07 14:00N 31°03' W 012°35'916.4
2018-Aug-07 13:29N 31°09' W 012°28'916.6
2018-Aug-07 12:57N 31°15' W 012°20'716.4
2018-Aug-07 12:30N 31°20' W 012°13'816.4
2018-Aug-07 12:00N 31°25' W 012°06'816.2
2018-Aug-07 11:30N 31°30' W 011°59'1016.7
2018-Aug-07 10:54N 31°37' W 011°50'716.6
2018-Aug-07 10:28N 31°42' W 011°44'2216.5
2018-Aug-07 09:09N 31°56' W 011°24'816.6
2018-Aug-07 08:41N 32°01' W 011°18'616.7
2018-Aug-07 08:20N 32°05' W 011°12'716.9
2018-Aug-07 07:55N 32°09' W 011°06'716.9
2018-Aug-07 07:30N 32°14' W 010°60'916.8
2018-Aug-07 07:00N 32°19' W 010°52'816.9
2018-Aug-07 06:30N 32°25' W 010°45'917.0
2018-Aug-07 06:00N 32°30' W 010°37'817.0
2018-Aug-07 05:30N 32°36' W 010°29'1116.8
2018-Aug-07 04:53N 32°43' W 010°20'717.0
2018-Aug-07 04:28N 32°48' W 010°14'817.1
2018-Aug-07 04:00N 32°53' W 010°07'917.0
2018-Aug-07 03:29N 32°59' W 009°59'817.2
2018-Aug-07 03:00N 33°04' W 009°51'917.2
2018-Aug-07 02:30N 33°10' W 009°43'917.4
2018-Aug-07 01:59N 33°16' W 009°35'817.4
2018-Aug-07 01:30N 33°21' W 009°28'917.5
2018-Aug-07 01:00N 33°27' W 009°20'1017.5
2018-Aug-07 00:27N 33°33' W 009°11'817.6
2018-Aug-07 00:00N 33°39' W 009°04'917.6
2018-Aug-06 23:31N 33°44' W 008°56'917.4
2018-Aug-06 23:00N 33°50' W 008°48'917.4
2018-Aug-06 22:30N 33°56' W 008°40'917.3
2018-Aug-06 21:58N 34°02' W 008°32'817.3
2018-Aug-06 21:29N 34°07' W 008°24'1217.3
2018-Aug-06 20:49N 34°15' W 008°13'1117.3
2018-Aug-06 20:12N 34°22' W 008°04'417.4
2018-Aug-06 19:57N 34°25' W 007°60'817.3
2018-Aug-06 19:30N 34°30' W 007°53'917.4
2018-Aug-06 18:58N 34°36' W 007°44'3317.3
2018-Aug-06 17:02N 34°58' W 007°13'10116.6
2018-Aug-06 10:56N 35°58' W 005°34'715.8
2018-Aug-06 10:31N 35°60' W 005°26'815.3
2018-Aug-06 10:00N 36°02' W 005°17'21515.5
2018-Aug-05 20:09N 37°14' W 001°04'316.8
2018-Aug-05 19:57N 37°16' W 001°00'716.8
2018-Aug-05 19:30N 37°21' W 000°53'816.8
2018-Aug-05 19:00N 37°26' W 000°45'816.7
2018-Aug-05 18:30N 37°32' W 000°37'816.6
2018-Aug-05 18:00N 37°38' W 000°31'917.0
2018-Aug-05 17:29N 37°45' W 000°25'817.0
2018-Aug-05 17:00N 37°52' W 000°19'816.8
2018-Aug-05 16:30N 37°59' W 000°13'816.8
2018-Aug-05 16:00N 38°06' W 000°07'916.9
2018-Aug-05 15:30N 38°13' W 000°01'816.8
2018-Aug-05 15:00N 38°20' E 000°04'1716.7
2018-Aug-05 14:00N 38°34' E 000°16'916.6
2018-Aug-05 13:29N 38°42' E 000°22'4916.5
2018-Aug-05 10:30N 39°22' W 000°14'511.1
2018-Aug-05 10:01N 39°26' W 000°19'0 0.6
2018-Aug-05 09:30N 39°26' W 000°19'0 0.0
2018-Aug-05 09:00N 39°26' W 000°19'0 0.0
2018-Aug-05 08:27N 39°26' W 000°19'0 0.0
2018-Aug-05 08:00N 39°26' W 000°19'0 0.0
2018-Aug-05 07:30N 39°26' W 000°19'0 0.0
2018-Aug-05 07:00N 39°26' W 000°19'0 0.0
2018-Aug-05 06:30N 39°26' W 000°19'0 0.0
2018-Aug-05 06:00N 39°26' W 000°19'0 0.0
2018-Aug-05 05:30N 39°26' W 000°19'0 0.0
2018-Aug-05 04:57N 39°26' W 000°19'0 0.0
2018-Aug-05 04:30N 39°26' W 000°19'0 0.0
2018-Aug-05 04:00N 39°26' W 000°19'0 0.0
2018-Aug-05 03:30N 39°26' W 000°19'0 0.0
2018-Aug-05 03:00N 39°26' W 000°19'0 0.0
2018-Aug-05 02:30N 39°26' W 000°19'0 0.0
2018-Aug-05 02:00N 39°26' W 000°19'0 0.0
2018-Aug-05 01:30N 39°26' W 000°19'0 0.0
2018-Aug-05 01:00N 39°26' W 000°19'0 0.0
2018-Aug-05 00:30N 39°26' W 000°19'0 0.0
2018-Aug-05 00:00N 39°26' W 000°19'0 0.0
2018-Aug-04 23:30N 39°26' W 000°19'0 0.0
2018-Aug-04 23:00N 39°26' W 000°19'0 0.0
2018-Aug-04 22:30N 39°26' W 000°19'0 0.0
2018-Aug-04 22:00N 39°26' W 000°19'0 0.0
2018-Aug-04 21:30N 39°26' W 000°19'0 0.0
2018-Aug-04 21:00N 39°26' W 000°19'0 0.0
2018-Aug-04 20:30N 39°26' W 000°19'  

Dump ship's entire track history